sensor_id;sensor_type;location;lat;lon;timestamp;pressure;altitude;pressure_sealevel;temperature;humidity
45078;BME280;60508;42.622;25.416;2023-09-19T00:01:09;97191.53;;;19.05;63.03
45078;BME280;60508;42.622;25.416;2023-09-19T00:03:39;97191.75;;;19.08;62.89
45078;BME280;60508;42.622;25.416;2023-09-19T00:06:06;97192.53;;;18.79;63.94
45078;BME280;60508;42.622;25.416;2023-09-19T00:08:41;97193.81;;;18.92;63.61
45078;BME280;60508;42.622;25.416;2023-09-19T00:11:11;97195.25;;;19.14;62.79
45078;BME280;60508;42.622;25.416;2023-09-19T00:13:39;97190.78;;;18.99;63.37
45078;BME280;60508;42.622;25.416;2023-09-19T00:16:10;97194.47;;;19.08;63.21
45078;BME280;60508;42.622;25.416;2023-09-19T00:18:37;97186.78;;;18.91;64.36
45078;BME280;60508;42.622;25.416;2023-09-19T00:21:04;97179.53;;;18.76;64.64
45078;BME280;60508;42.622;25.416;2023-09-19T00:23:41;97183.66;;;18.34;65.99
45078;BME280;60508;42.622;25.416;2023-09-19T00:26:08;97182.00;;;17.99;67.57
45078;BME280;60508;42.622;25.416;2023-09-19T00:28:35;97181.91;;;17.64;69.19
45078;BME280;60508;42.622;25.416;2023-09-19T00:31:02;97182.53;;;17.46;69.62
45078;BME280;60508;42.622;25.416;2023-09-19T00:33:29;97191.00;;;17.34;70.57
45078;BME280;60508;42.622;25.416;2023-09-19T00:35:56;97176.88;;;17.32;70.48
45078;BME280;60508;42.622;25.416;2023-09-19T00:38:28;97182.75;;;17.60;69.34
45078;BME280;60508;42.622;25.416;2023-09-19T00:40:55;97187.25;;;17.85;68.26
45078;BME280;60508;42.622;25.416;2023-09-19T00:43:23;97181.28;;;17.83;68.19
45078;BME280;60508;42.622;25.416;2023-09-19T00:45:52;97173.94;;;17.88;67.87
45078;BME280;60508;42.622;25.416;2023-09-19T00:48:31;97176.41;;;17.80;68.06
45078;BME280;60508;42.622;25.416;2023-09-19T00:51:02;97184.00;;;17.78;67.59
45078;BME280;60508;42.622;25.416;2023-09-19T00:53:30;97180.44;;;17.82;66.93
45078;BME280;60508;42.622;25.416;2023-09-19T00:56:02;97179.84;;;17.36;69.18
45078;BME280;60508;42.622;25.416;2023-09-19T00:58:31;97184.25;;;17.26;69.95
45078;BME280;60508;42.622;25.416;2023-09-19T01:01:01;97185.06;;;17.27;69.82
45078;BME280;60508;42.622;25.416;2023-09-19T01:03:31;97180.41;;;17.32;69.98
45078;BME280;60508;42.622;25.416;2023-09-19T01:05:59;97189.06;;;17.45;69.48
45078;BME280;60508;42.622;25.416;2023-09-19T01:08:28;97182.88;;;17.29;70.65
45078;BME280;60508;42.622;25.416;2023-09-19T01:11:28;97185.94;;;16.91;71.72
45078;BME280;60508;42.622;25.416;2023-09-19T01:14:15;97185.66;;;16.83;72.35
45078;BME280;60508;42.622;25.416;2023-09-19T01:16:58;97177.00;;;16.65;72.70
45078;BME280;60508;42.622;25.416;2023-09-19T01:20:05;97178.91;;;16.85;72.08
45078;BME280;60508;42.622;25.416;2023-09-19T01:23:05;97180.53;;;16.91;71.73
45078;BME280;60508;42.622;25.416;2023-09-19T01:25:56;97184.56;;;17.04;71.21
45078;BME280;60508;42.622;25.416;2023-09-19T01:31:37;97180.69;;;17.36;69.49
45078;BME280;60508;42.622;25.416;2023-09-19T01:34:04;97166.53;;;17.44;68.88
45078;BME280;60508;42.622;25.416;2023-09-19T01:36:40;97169.81;;;17.31;69.19
45078;BME280;60508;42.622;25.416;2023-09-19T01:39:10;97159.50;;;17.33;68.96
45078;BME280;60508;42.622;25.416;2023-09-19T01:41:47;97167.34;;;17.40;67.82
45078;BME280;60508;42.622;25.416;2023-09-19T01:44:29;97174.53;;;17.75;67.55
45078;BME280;60508;42.622;25.416;2023-09-19T01:47:03;97154.34;;;17.92;66.89
45078;BME280;60508;42.622;25.416;2023-09-19T01:49:43;97151.22;;;18.14;65.92
45078;BME280;60508;42.622;25.416;2023-09-19T01:52:13;97160.78;;;18.06;65.99
45078;BME280;60508;42.622;25.416;2023-09-19T01:54:51;97158.44;;;18.29;64.60
45078;BME280;60508;42.622;25.416;2023-09-19T01:57:28;97149.19;;;18.30;65.04
45078;BME280;60508;42.622;25.416;2023-09-19T02:00:07;97153.41;;;18.46;64.56
45078;BME280;60508;42.622;25.416;2023-09-19T02:02:46;97153.75;;;18.34;65.16
45078;BME280;60508;42.622;25.416;2023-09-19T02:05:22;97152.56;;;18.11;65.73
45078;BME280;60508;42.622;25.416;2023-09-19T02:07:50;97157.00;;;17.97;66.45
45078;BME280;60508;42.622;25.416;2023-09-19T02:10:17;97160.53;;;17.47;68.05
45078;BME280;60508;42.622;25.416;2023-09-19T02:12:44;97150.94;;;16.85;69.29
45078;BME280;60508;42.622;25.416;2023-09-19T02:15:24;97162.34;;;16.92;70.67
45078;BME280;60508;42.622;25.416;2023-09-19T02:17:51;97153.06;;;17.08;70.04
45078;BME280;60508;42.622;25.416;2023-09-19T02:20:18;97150.91;;;17.10;70.02
45078;BME280;60508;42.622;25.416;2023-09-19T02:22:47;97151.22;;;16.88;70.62
45078;BME280;60508;42.622;25.416;2023-09-19T02:25:16;97149.03;;;16.80;71.04
45078;BME280;60508;42.622;25.416;2023-09-19T02:27:42;97154.75;;;16.63;71.67
45078;BME280;60508;42.622;25.416;2023-09-19T02:30:10;97151.22;;;16.88;70.82
45078;BME280;60508;42.622;25.416;2023-09-19T02:32:47;97144.84;;;17.29;69.51
45078;BME280;60508;42.622;25.416;2023-09-19T02:35:15;97139.84;;;17.51;68.25
45078;BME280;60508;42.622;25.416;2023-09-19T02:37:42;97138.94;;;17.72;67.29
45078;BME280;60508;42.622;25.416;2023-09-19T02:40:09;97147.13;;;17.61;67.37
45078;BME280;60508;42.622;25.416;2023-09-19T02:42:55;97140.75;;;17.86;66.33
45078;BME280;60508;42.622;25.416;2023-09-19T02:45:23;97143.38;;;18.02;65.49
45078;BME280;60508;42.622;25.416;2023-09-19T02:47:50;97141.38;;;18.18;64.77
45078;BME280;60508;42.622;25.416;2023-09-19T02:50:27;97145.84;;;17.98;65.90
45078;BME280;60508;42.622;25.416;2023-09-19T02:52:54;97139.88;;;18.01;66.14
45078;BME280;60508;42.622;25.416;2023-09-19T02:55:21;97133.13;;;17.94;66.07
45078;BME280;60508;42.622;25.416;2023-09-19T02:57:50;97134.66;;;17.60;66.64
45078;BME280;60508;42.622;25.416;2023-09-19T03:00:27;97127.06;;;17.52;67.20
45078;BME280;60508;42.622;25.416;2023-09-19T03:02:54;97129.16;;;17.70;66.64
45078;BME280;60508;42.622;25.416;2023-09-19T03:05:22;97131.44;;;17.53;67.11
45078;BME280;60508;42.622;25.416;2023-09-19T03:07:50;97133.19;;;17.28;68.05
45078;BME280;60508;42.622;25.416;2023-09-19T03:10:20;97136.63;;;17.44;67.17
45078;BME280;60508;42.622;25.416;2023-09-19T03:12:48;97128.03;;;17.22;68.05
45078;BME280;60508;42.622;25.416;2023-09-19T03:15:15;97133.59;;;16.60;70.58
45078;BME280;60508;42.622;25.416;2023-09-19T03:17:54;97130.06;;;16.59;71.26
45078;BME280;60508;42.622;25.416;2023-09-19T03:20:23;97126.25;;;16.71;71.54
45078;BME280;60508;42.622;25.416;2023-09-19T03:22:51;97123.53;;;16.91;70.61
45078;BME280;60508;42.622;25.416;2023-09-19T03:25:19;97121.19;;;17.29;69.12
45078;BME280;60508;42.622;25.416;2023-09-19T03:27:49;97132.25;;;17.48;68.51
45078;BME280;60508;42.622;25.416;2023-09-19T03:30:26;97133.66;;;17.46;66.91
45078;BME280;60508;42.622;25.416;2023-09-19T03:32:53;97128.97;;;16.86;68.20
45078;BME280;60508;42.622;25.416;2023-09-19T03:35:20;97136.56;;;16.89;68.91
45078;BME280;60508;42.622;25.416;2023-09-19T03:37:51;97134.09;;;16.93;69.27
45078;BME280;60508;42.622;25.416;2023-09-19T03:40:19;97144.44;;;16.75;69.82
45078;BME280;60508;42.622;25.416;2023-09-19T03:42:48;97146.31;;;16.80;69.33
45078;BME280;60508;42.622;25.416;2023-09-19T03:45:23;97136.50;;;17.05;68.59
45078;BME280;60508;42.622;25.416;2023-09-19T03:47:52;97151.22;;;16.78;70.11
45078;BME280;60508;42.622;25.416;2023-09-19T03:50:20;97149.59;;;16.77;70.71
45078;BME280;60508;42.622;25.416;2023-09-19T03:52:47;97154.22;;;16.61;70.75
45078;BME280;60508;42.622;25.416;2023-09-19T03:55:24;97153.13;;;16.52;71.73
45078;BME280;60508;42.622;25.416;2023-09-19T03:57:51;97150.66;;;16.71;70.69
45078;BME280;60508;42.622;25.416;2023-09-19T04:00:19;97146.03;;;16.97;69.66
45078;BME280;60508;42.622;25.416;2023-09-19T04:02:48;97149.50;;;17.18;68.79
45078;BME280;60508;42.622;25.416;2023-09-19T04:05:24;97150.34;;;17.03;69.90
45078;BME280;60508;42.622;25.416;2023-09-19T04:07:51;97152.03;;;16.78;70.81
45078;BME280;60508;42.622;25.416;2023-09-19T04:10:18;97147.97;;;16.71;71.23
45078;BME280;60508;42.622;25.416;2023-09-19T04:12:55;97151.25;;;16.47;71.50
45078;BME280;60508;42.622;25.416;2023-09-19T04:15:23;97145.00;;;16.41;71.63
45078;BME280;60508;42.622;25.416;2023-09-19T04:18:03;97156.13;;;16.24;73.71
45078;BME280;60508;42.622;25.416;2023-09-19T04:20:30;97157.50;;;16.12;74.22
45078;BME280;60508;42.622;25.416;2023-09-19T04:22:57;97148.81;;;16.25;74.47
45078;BME280;60508;42.622;25.416;2023-09-19T04:25:33;97146.94;;;16.36;73.88
45078;BME280;60508;42.622;25.416;2023-09-19T04:27:59;97137.66;;;16.63;72.32
45078;BME280;60508;42.622;25.416;2023-09-19T04:30:26;97147.13;;;16.80;71.67
45078;BME280;60508;42.622;25.416;2023-09-19T04:32:53;97146.31;;;17.01;70.81
45078;BME280;60508;42.622;25.416;2023-09-19T04:35:28;97148.66;;;17.23;69.67
45078;BME280;60508;42.622;25.416;2023-09-19T04:37:58;97150.56;;;17.27;69.06
45078;BME280;60508;42.622;25.416;2023-09-19T04:40:24;97133.47;;;17.22;68.92
45078;BME280;60508;42.622;25.416;2023-09-19T04:43:00;97145.22;;;17.67;67.26
45078;BME280;60508;42.622;25.416;2023-09-19T04:45:27;97136.72;;;17.24;67.92
45078;BME280;60508;42.622;25.416;2023-09-19T04:47:55;97148.75;;;16.82;69.63
45078;BME280;60508;42.622;25.416;2023-09-19T04:50:22;97145.28;;;16.60;70.52
45078;BME280;60508;42.622;25.416;2023-09-19T04:53:00;97146.06;;;16.10;72.64
45078;BME280;60508;42.622;25.416;2023-09-19T04:55:28;97146.88;;;15.95;74.07
45078;BME280;60508;42.622;25.416;2023-09-19T04:57:56;97147.19;;;16.14;73.14
45078;BME280;60508;42.622;25.416;2023-09-19T05:00:26;97145.53;;;16.02;74.01
45078;BME280;60508;42.622;25.416;2023-09-19T05:02:57;97155.53;;;15.81;74.84
45078;BME280;60508;42.622;25.416;2023-09-19T05:05:24;97142.81;;;15.87;75.01
45078;BME280;60508;42.622;25.416;2023-09-19T05:08:02;97148.47;;;15.80;75.51
45078;BME280;60508;42.622;25.416;2023-09-19T05:10:32;97153.38;;;15.88;74.99
45078;BME280;60508;42.622;25.416;2023-09-19T05:12:58;97162.88;;;15.91;75.31
45078;BME280;60508;42.622;25.416;2023-09-19T05:15:25;97162.06;;;16.11;74.62
45078;BME280;60508;42.622;25.416;2023-09-19T05:17:52;97155.31;;;16.19;74.80
45078;BME280;60508;42.622;25.416;2023-09-19T05:20:31;97164.78;;;16.42;74.23
45078;BME280;60508;42.622;25.416;2023-09-19T05:23:06;97158.28;;;16.69;73.13
45078;BME280;60508;42.622;25.416;2023-09-19T05:25:45;97154.47;;;16.85;72.61
45078;BME280;60508;42.622;25.416;2023-09-19T05:28:14;97151.75;;;16.85;72.76
45078;BME280;60508;42.622;25.416;2023-09-19T05:30:41;97154.47;;;16.90;72.96
45078;BME280;60508;42.622;25.416;2023-09-19T05:33:21;97148.50;;;16.88;73.07
45078;BME280;60508;42.622;25.416;2023-09-19T05:35:48;97132.78;;;16.75;72.87
45078;BME280;60508;42.622;25.416;2023-09-19T05:38:15;97140.63;;;16.82;72.63
45078;BME280;60508;42.622;25.416;2023-09-19T05:40:55;97146.34;;;16.85;72.72
45078;BME280;60508;42.622;25.416;2023-09-19T05:43:22;97143.31;;;17.02;72.27
45078;BME280;60508;42.622;25.416;2023-09-19T05:45:48;97142.94;;;17.29;71.30
45078;BME280;60508;42.622;25.416;2023-09-19T05:48:26;97143.13;;;17.48;70.79
45078;BME280;60508;42.622;25.416;2023-09-19T05:50:52;97153.69;;;17.60;69.94
45078;BME280;60508;42.622;25.416;2023-09-19T05:53:19;97146.66;;;17.54;70.19
45078;BME280;60508;42.622;25.416;2023-09-19T05:55:46;97156.97;;;17.52;70.36
45078;BME280;60508;42.622;25.416;2023-09-19T05:58:13;97151.69;;;17.71;69.98
45078;BME280;60508;42.622;25.416;2023-09-19T06:00:56;97151.81;;;18.00;68.57
45078;BME280;60508;42.622;25.416;2023-09-19T06:03:23;97151.53;;;18.02;68.30
45078;BME280;60508;42.622;25.416;2023-09-19T06:05:50;97138.78;;;18.02;68.13
45078;BME280;60508;42.622;25.416;2023-09-19T06:08:19;97150.25;;;17.94;68.64
45078;BME280;60508;42.622;25.416;2023-09-19T06:10:48;97152.47;;;17.82;69.25
45078;BME280;60508;42.622;25.416;2023-09-19T06:13:15;97147.53;;;17.89;69.12
45078;BME280;60508;42.622;25.416;2023-09-19T06:15:42;97149.84;;;18.11;68.82
45078;BME280;60508;42.622;25.416;2023-09-19T06:18:13;97129.88;;;18.26;67.85
45078;BME280;60508;42.622;25.416;2023-09-19T06:20:48;97152.84;;;18.49;67.50
45078;BME280;60508;42.622;25.416;2023-09-19T06:23:25;97143.81;;;18.54;67.41
45078;BME280;60508;42.622;25.416;2023-09-19T06:25:54;97140.41;;;18.38;67.67
45078;BME280;60508;42.622;25.416;2023-09-19T06:28:21;97144.78;;;18.34;68.08
45078;BME280;60508;42.622;25.416;2023-09-19T06:31:02;97145.41;;;18.25;68.70
45078;BME280;60508;42.622;25.416;2023-09-19T06:33:29;97146.88;;;18.42;67.70
45078;BME280;60508;42.622;25.416;2023-09-19T06:35:58;97155.06;;;18.42;67.68
45078;BME280;60508;42.622;25.416;2023-09-19T06:38:26;97146.28;;;18.50;67.71
45078;BME280;60508;42.622;25.416;2023-09-19T06:41:05;97150.09;;;18.78;67.50
45078;BME280;60508;42.622;25.416;2023-09-19T06:43:31;97141.06;;;18.88;66.45
45078;BME280;60508;42.622;25.416;2023-09-19T06:46:01;97140.66;;;19.00;65.91
45078;BME280;60508;42.622;25.416;2023-09-19T06:48:28;97142.28;;;19.25;65.25
45078;BME280;60508;42.622;25.416;2023-09-19T06:50:59;97141.50;;;19.44;64.81
45078;BME280;60508;42.622;25.416;2023-09-19T06:53:41;97145.81;;;19.69;64.24
45078;BME280;60508;42.622;25.416;2023-09-19T06:56:08;97142.50;;;19.72;63.79
45078;BME280;60508;42.622;25.416;2023-09-19T06:58:35;97148.72;;;19.78;62.84
45078;BME280;60508;42.622;25.416;2023-09-19T07:01:03;97155.34;;;19.91;62.66
45078;BME280;60508;42.622;25.416;2023-09-19T07:03:29;97150.47;;;19.87;62.28
45078;BME280;60508;42.622;25.416;2023-09-19T07:06:06;97123.78;;;20.03;61.07
45078;BME280;60508;42.622;25.416;2023-09-19T07:08:35;97140.25;;;20.17;60.97
45078;BME280;60508;42.622;25.416;2023-09-19T07:11:02;97145.78;;;20.45;58.54
45078;BME280;60508;42.622;25.416;2023-09-19T07:13:29;97138.81;;;20.20;58.76
45078;BME280;60508;42.622;25.416;2023-09-19T07:15:58;97149.28;;;20.32;57.59
45078;BME280;60508;42.622;25.416;2023-09-19T07:18:34;97144.84;;;20.36;57.23
45078;BME280;60508;42.622;25.416;2023-09-19T07:21:01;97150.25;;;20.22;57.20
45078;BME280;60508;42.622;25.416;2023-09-19T07:23:31;97149.13;;;20.23;58.09
45078;BME280;60508;42.622;25.416;2023-09-19T07:26:01;97112.38;;;20.34;56.59
45078;BME280;60508;42.622;25.416;2023-09-19T07:28:35;97139.94;;;20.52;57.39
45078;BME280;60508;42.622;25.416;2023-09-19T07:31:03;97135.81;;;20.54;57.28
45078;BME280;60508;42.622;25.416;2023-09-19T07:33:31;97130.34;;;20.54;55.89
45078;BME280;60508;42.622;25.416;2023-09-19T07:36:10;97133.75;;;20.79;55.72
45078;BME280;60508;42.622;25.416;2023-09-19T07:38:37;97135.22;;;21.04;54.69
45078;BME280;60508;42.622;25.416;2023-09-19T07:41:04;97121.13;;;20.97;54.92
45078;BME280;60508;42.622;25.416;2023-09-19T07:43:32;97130.44;;;20.82;55.43
45078;BME280;60508;42.622;25.416;2023-09-19T07:46:04;97135.25;;;20.71;56.05
45078;BME280;60508;42.622;25.416;2023-09-19T07:48:43;97129.94;;;20.80;55.33
45078;BME280;60508;42.622;25.416;2023-09-19T07:51:15;97125.50;;;20.98;54.74
45078;BME280;60508;42.622;25.416;2023-09-19T07:53:42;97113.03;;;21.33;52.31
45078;BME280;60508;42.622;25.416;2023-09-19T07:56:19;97124.47;;;21.36;52.85
45078;BME280;60508;42.622;25.416;2023-09-19T07:58:47;97117.91;;;21.37;52.37
45078;BME280;60508;42.622;25.416;2023-09-19T08:01:13;97118.00;;;21.31;52.10
45078;BME280;60508;42.622;25.416;2023-09-19T08:03:42;97118.81;;;21.60;51.43
45078;BME280;60508;42.622;25.416;2023-09-19T08:06:10;97109.81;;;22.18;49.54
45078;BME280;60508;42.622;25.416;2023-09-19T08:08:37;97105.16;;;22.64;49.11
45078;BME280;60508;42.622;25.416;2023-09-19T08:11:05;97118.94;;;23.22;47.86
45078;BME280;60508;42.622;25.416;2023-09-19T08:13:39;97116.28;;;23.48;46.12
45078;BME280;60508;42.622;25.416;2023-09-19T08:16:25;97105.91;;;22.33;49.16
45078;BME280;60508;42.622;25.416;2023-09-19T08:18:52;97097.56;;;21.93;50.35
45078;BME280;60508;42.622;25.416;2023-09-19T08:21:21;97101.81;;;21.85;50.95
45078;BME280;60508;42.622;25.416;2023-09-19T08:23:50;97098.72;;;22.01;50.18
45078;BME280;60508;42.622;25.416;2023-09-19T08:26:16;97100.03;;;22.26;49.96
45078;BME280;60508;42.622;25.416;2023-09-19T08:28:43;97101.34;;;22.74;48.70
45078;BME280;60508;42.622;25.416;2023-09-19T08:31:20;97103.38;;;23.00;47.19
45078;BME280;60508;42.622;25.416;2023-09-19T08:33:47;97093.31;;;23.18;46.88
45078;BME280;60508;42.622;25.416;2023-09-19T08:36:16;97097.97;;;22.77;46.69
45078;BME280;60508;42.622;25.416;2023-09-19T08:38:53;97082.88;;;22.12;48.68
45078;BME280;60508;42.622;25.416;2023-09-19T08:41:19;97084.72;;;22.25;48.34
45078;BME280;60508;42.622;25.416;2023-09-19T08:43:46;97077.78;;;22.19;48.32
45078;BME280;60508;42.622;25.416;2023-09-19T08:46:25;97088.59;;;22.24;48.02
45078;BME280;60508;42.622;25.416;2023-09-19T08:49:10;97073.84;;;22.56;47.32
45078;BME280;60508;42.622;25.416;2023-09-19T08:51:43;97074.81;;;22.92;46.45
45078;BME280;60508;42.622;25.416;2023-09-19T08:54:22;97078.56;;;23.05;45.98
45078;BME280;60508;42.622;25.416;2023-09-19T08:57:04;97071.03;;;23.10;45.79
45078;BME280;60508;42.622;25.416;2023-09-19T08:59:37;97062.72;;;23.42;45.08
45078;BME280;60508;42.622;25.416;2023-09-19T09:02:11;97062.47;;;23.87;43.71
45078;BME280;60508;42.622;25.416;2023-09-19T09:04:40;97057.56;;;24.28;43.17
45078;BME280;60508;42.622;25.416;2023-09-19T09:07:11;97057.88;;;24.35;42.15
45078;BME280;60508;42.622;25.416;2023-09-19T09:09:48;97056.31;;;24.72;41.79
45078;BME280;60508;42.622;25.416;2023-09-19T09:12:16;97055.63;;;25.52;40.00
45078;BME280;60508;42.622;25.416;2023-09-19T09:14:45;97038.09;;;25.99;39.20
45078;BME280;60508;42.622;25.416;2023-09-19T09:17:26;97049.84;;;27.00;37.04
45078;BME280;60508;42.622;25.416;2023-09-19T09:19:53;97047.66;;;27.83;35.38
45078;BME280;60508;42.622;25.416;2023-09-19T09:22:21;97044.78;;;27.39;35.12
45078;BME280;60508;42.622;25.416;2023-09-19T09:24:59;97042.47;;;27.41;35.13
45078;BME280;60508;42.622;25.416;2023-09-19T09:27:28;97040.22;;;27.72;35.01
45078;BME280;60508;42.622;25.416;2023-09-19T09:29:54;97039.19;;;27.76;34.63
45078;BME280;60508;42.622;25.416;2023-09-19T09:32:31;97030.75;;;27.85;34.13
45078;BME280;60508;42.622;25.416;2023-09-19T09:35:07;97026.16;;;27.89;34.32
45078;BME280;60508;42.622;25.416;2023-09-19T09:37:59;97029.94;;;28.41;33.41
45078;BME280;60508;42.622;25.416;2023-09-19T09:40:45;97025.69;;;28.59;32.83
45078;BME280;60508;42.622;25.416;2023-09-19T09:43:25;97016.88;;;28.86;32.80
45078;BME280;60508;42.622;25.416;2023-09-19T09:46:15;97017.22;;;29.52;30.90
45078;BME280;60508;42.622;25.416;2023-09-19T09:49:05;97010.59;;;29.37;31.23
45078;BME280;60508;42.622;25.416;2023-09-19T09:51:59;97011.88;;;29.98;30.37
45078;BME280;60508;42.622;25.416;2023-09-19T09:54:27;97005.91;;;28.57;31.72
45078;BME280;60508;42.622;25.416;2023-09-19T09:57:01;97014.13;;;28.70;31.37
45078;BME280;60508;42.622;25.416;2023-09-19T09:59:47;97004.28;;;29.20;31.05
45078;BME280;60508;42.622;25.416;2023-09-19T10:02:24;97006.72;;;28.58;32.49
45078;BME280;60508;42.622;25.416;2023-09-19T10:05:18;97007.38;;;29.35;31.46
45078;BME280;60508;42.622;25.416;2023-09-19T10:07:51;97002.88;;;30.67;29.24
45078;BME280;60508;42.622;25.416;2023-09-19T10:10:40;97016.41;;;30.95;28.33
45078;BME280;60508;42.622;25.416;2023-09-19T10:13:11;97008.28;;;31.33;27.76
45078;BME280;60508;42.622;25.416;2023-09-19T10:15:50;97013.31;;;32.11;26.71
45078;BME280;60508;42.622;25.416;2023-09-19T10:18:27;97004.34;;;32.28;26.27
45078;BME280;60508;42.622;25.416;2023-09-19T10:21:04;96997.72;;;32.81;25.91
45078;BME280;60508;42.622;25.416;2023-09-19T10:23:33;96995.41;;;32.08;26.51
45078;BME280;60508;42.622;25.416;2023-09-19T10:26:01;96992.38;;;31.29;27.50
45078;BME280;60508;42.622;25.416;2023-09-19T10:28:39;96997.88;;;30.76;27.40
45078;BME280;60508;42.622;25.416;2023-09-19T10:31:06;96991.09;;;31.23;27.00
45078;BME280;60508;42.622;25.416;2023-09-19T10:33:36;96992.34;;;31.53;26.69
45078;BME280;60508;42.622;25.416;2023-09-19T10:36:17;96991.59;;;31.90;26.58
45078;BME280;60508;42.622;25.416;2023-09-19T10:38:45;96984.75;;;32.55;25.37
45078;BME280;60508;42.622;25.416;2023-09-19T10:41:14;96983.66;;;32.63;24.86
45078;BME280;60508;42.622;25.416;2023-09-19T10:43:53;96984.09;;;32.28;25.29
45078;BME280;60508;42.622;25.416;2023-09-19T10:46:21;96983.41;;;32.83;24.08
45078;BME280;60508;42.622;25.416;2023-09-19T10:48:50;96965.66;;;32.53;23.48
45078;BME280;60508;42.622;25.416;2023-09-19T10:51:22;96978.44;;;33.73;22.74
45078;BME280;60508;42.622;25.416;2023-09-19T10:53:56;96966.31;;;34.82;21.80
45078;BME280;60508;42.622;25.416;2023-09-19T10:56:33;96972.09;;;35.88;20.96
45078;BME280;60508;42.622;25.416;2023-09-19T10:59:06;96962.78;;;37.18;20.25
45078;BME280;60508;42.622;25.416;2023-09-19T11:04:34;96966.19;;;38.87;18.48
45078;BME280;60508;42.622;25.416;2023-09-19T11:07:09;96964.88;;;38.13;18.86
45078;BME280;60508;42.622;25.416;2023-09-19T11:09:56;96950.28;;;37.95;18.37
45078;BME280;60508;42.622;25.416;2023-09-19T11:12:47;96945.97;;;38.21;18.14
45078;BME280;60508;42.622;25.416;2023-09-19T11:16:33;96944.13;;;36.55;19.79
45078;BME280;60508;42.622;25.416;2023-09-19T11:26:49;96932.63;;;31.70;25.36
45078;BME280;60508;42.622;25.416;2023-09-19T11:29:26;96918.50;;;30.21;27.15
45078;BME280;60508;42.622;25.416;2023-09-19T11:32:06;96912.75;;;29.48;27.49
45078;BME280;60508;42.622;25.416;2023-09-19T11:42:45;96880.13;;;30.00;27.30
45078;BME280;60508;42.622;25.416;2023-09-19T11:48:18;96888.22;;;28.92;28.86
45078;BME280;60508;42.622;25.416;2023-09-19T11:50:57;96893.38;;;27.66;30.62
45078;BME280;60508;42.622;25.416;2023-09-19T11:53:31;96892.63;;;27.12;31.57
45078;BME280;60508;42.622;25.416;2023-09-19T11:56:00;96888.75;;;27.01;32.12
45078;BME280;60508;42.622;25.416;2023-09-19T11:58:27;96875.06;;;27.05;31.72
45078;BME280;60508;42.622;25.416;2023-09-19T12:01:06;96872.59;;;27.28;31.37
45078;BME280;60508;42.622;25.416;2023-09-19T12:03:42;96865.84;;;27.54;31.19
45078;BME280;60508;42.622;25.416;2023-09-19T12:06:12;96866.06;;;28.56;30.01
45078;BME280;60508;42.622;25.416;2023-09-19T12:08:42;96869.13;;;30.27;27.71
45078;BME280;60508;42.622;25.416;2023-09-19T12:11:14;96872.34;;;32.11;25.75
45078;BME280;60508;42.622;25.416;2023-09-19T12:13:45;96865.75;;;33.70;23.68
45078;BME280;60508;42.622;25.416;2023-09-19T12:18:51;96863.88;;;35.89;20.82
45078;BME280;60508;42.622;25.416;2023-09-19T12:21:31;96861.69;;;35.40;21.53
45078;BME280;60508;42.622;25.416;2023-09-19T12:24:12;96875.59;;;36.22;20.75
45078;BME280;60508;42.622;25.416;2023-09-19T12:26:46;96855.63;;;38.30;18.75
45078;BME280;60508;42.622;25.416;2023-09-19T12:29:25;96860.44;;;38.29;18.95
45078;BME280;60508;42.622;25.416;2023-09-19T12:31:54;96862.78;;;37.15;19.31
45078;BME280;60508;42.622;25.416;2023-09-19T12:34:25;96860.13;;;36.59;20.12
45078;BME280;60508;42.622;25.416;2023-09-19T12:37:11;96853.16;;;35.76;20.97
45078;BME280;60508;42.622;25.416;2023-09-19T12:39:50;96851.13;;;34.31;22.83
45078;BME280;60508;42.622;25.416;2023-09-19T12:42:24;96842.81;;;33.07;24.25
45078;BME280;60508;42.622;25.416;2023-09-19T12:44:51;96849.84;;;34.93;22.74
45078;BME280;60508;42.622;25.416;2023-09-19T12:47:28;96849.38;;;37.91;19.76
45078;BME280;60508;42.622;25.416;2023-09-19T12:50:11;96849.38;;;41.01;16.87
45078;BME280;60508;42.622;25.416;2023-09-19T12:52:52;96855.13;;;37.53;19.33
45078;BME280;60508;42.622;25.416;2023-09-19T12:55:24;96845.47;;;36.44;21.07
45078;BME280;60508;42.622;25.416;2023-09-19T12:57:59;96841.94;;;34.55;22.75
45078;BME280;60508;42.622;25.416;2023-09-19T13:00:36;96836.69;;;34.97;22.44
45078;BME280;60508;42.622;25.416;2023-09-19T13:03:28;96839.53;;;35.82;22.02
45078;BME280;60508;42.622;25.416;2023-09-19T13:06:09;96838.47;;;37.04;20.24
45078;BME280;60508;42.622;25.416;2023-09-19T13:08:40;96827.06;;;36.46;20.58
45078;BME280;60508;42.622;25.416;2023-09-19T13:11:17;96834.53;;;38.22;19.22
45078;BME280;60508;42.622;25.416;2023-09-19T13:14:26;96834.56;;;39.29;18.25
45078;BME280;60508;42.622;25.416;2023-09-19T13:16:58;96839.16;;;43.45;15.20
45078;BME280;60508;42.622;25.416;2023-09-19T13:19:46;96837.59;;;47.12;12.57
45078;BME280;60508;42.622;25.416;2023-09-19T13:22:39;96835.06;;;48.60;11.77
45078;BME280;60508;42.622;25.416;2023-09-19T13:25:13;96833.06;;;47.06;12.22
45078;BME280;60508;42.622;25.416;2023-09-19T13:27:42;96827.50;;;47.26;12.18
45078;BME280;60508;42.622;25.416;2023-09-19T13:30:12;96832.44;;;49.24;11.20
45078;BME280;60508;42.622;25.416;2023-09-19T13:32:38;96829.34;;;48.04;11.63
45078;BME280;60508;42.622;25.416;2023-09-19T13:35:07;96822.59;;;47.42;11.79
45078;BME280;60508;42.622;25.416;2023-09-19T13:37:38;96823.03;;;49.44;10.71
45078;BME280;60508;42.622;25.416;2023-09-19T13:40:10;96826.31;;;49.89;10.31
45078;BME280;60508;42.622;25.416;2023-09-19T13:42:38;96829.22;;;49.68;10.13
45078;BME280;60508;42.622;25.416;2023-09-19T13:45:05;96823.56;;;48.75;10.83
45078;BME280;60508;42.622;25.416;2023-09-19T13:47:32;96810.41;;;43.46;14.27